PWSweather.com
Personal Weather Stations
Station Observations
DW1039
Liberty & Fairfield Townships, Hamilton, OH 45011

Liberty & Fairfield TownshipsHamilton, OH 45011

Lat: 39.3933, Lon: -84.477

Elevation: 780

Station Type: Davis Vantage Pro2 (Daytime Fan Aspirated)

http://www.lfweathercenter.com/

High Low Average
Temperature 49.1°F9.5°C 33.2°F0.7°C 43.9°F6.6°C
Dew Point 39.0°F3.9°C -4.6°F-20.3°C 15.9°F-8.9°C
Winds 8.0 mph 12.9 kmh Calm Calm 3.0 mph SE4.8 kmh SE
Wind Gusts 15.0 mph24.1 kmh 1.0 mph1.6 kmh 7.0 mph11.3 kmh
Humidity 72% 12% 36%
Pressure 30.28 in1025.4 mb 29.96 in1014.6 mb -
Precipitation 0.00 in0.0 mm - -
Hour Temp Dew Point Humidity Winds Wind Gusts Pressure Precip Precip Rate Daily Precip Total
12:00 AM 49.5°F9.7°C 31.2°F-0.4°C 49% 1.0 mph S1.6 kmh S 2.0 mph3.2 kmh 30.06 in1017.9 mb 0.00 in0.0 mm 0.00 in0.0 mm 0.00 in0.0 mm
12:10 AM 49.3°F9.6°C 31.0°F-0.6°C 49% Calm Calm 2.0 mph3.2 kmh 30.06 in1017.9 mb 0.00 in0.0 mm 0.00 in0.0 mm 0.00 in0.0 mm
12:20 AM 49.2°F9.6°C 30.4°F-0.9°C 48% 1.0 mph NE1.6 kmh NE 3.0 mph4.8 kmh 30.05 in1017.6 mb 0.00 in0.0 mm 0.00 in0.0 mm 0.00 in0.0 mm
12:30 AM 49.1°F9.5°C 30.3°F-0.9°C 48% 1.0 mph NE1.6 kmh NE 3.0 mph4.8 kmh 30.05 in1017.6 mb 0.00 in0.0 mm 0.00 in0.0 mm 0.00 in0.0 mm
12:40 AM 49.0°F9.4°C 30.2°F-1.0°C 48% Calm Calm 4.0 mph6.4 kmh 30.05 in1017.6 mb 0.00 in0.0 mm 0.00 in0.0 mm 0.00 in0.0 mm
12:50 AM 49.0°F9.4°C 30.2°F-1.0°C 48% 1.0 mph ENE1.6 kmh ENE 3.0 mph4.8 kmh 30.05 in1017.6 mb 0.00 in0.0 mm 0.00 in0.0 mm 0.00 in0.0 mm
01:00 AM 49.0°F9.4°C 29.7°F-1.3°C 47% 1.0 mph NE1.6 kmh NE 3.0 mph4.8 kmh 30.05 in1017.6 mb 0.00 in0.0 mm 0.00 in0.0 mm 0.00 in0.0 mm
01:10 AM 49.1°F9.5°C 29.8°F-1.2°C 47% 1.0 mph NNE1.6 kmh NNE 3.0 mph4.8 kmh 30.05 in1017.6 mb 0.00 in0.0 mm 0.00 in0.0 mm 0.00 in0.0 mm
01:20 AM 49.0°F9.4°C 29.1°F-1.6°C 46% 2.0 mph N3.2 kmh N 4.0 mph6.4 kmh 30.05 in1017.6 mb 0.00 in0.0 mm 0.00 in0.0 mm 0.00 in0.0 mm
01:30 AM 49.0°F9.4°C 28.6°F-1.9°C 45% 2.0 mph N3.2 kmh N 3.0 mph4.8 kmh 30.05 in1017.6 mb 0.00 in0.0 mm 0.00 in0.0 mm 0.00 in0.0 mm
01:40 AM 48.9°F9.4°C 28.5°F-1.9°C 45% 1.0 mph N1.6 kmh N 3.0 mph4.8 kmh 30.05 in1017.6 mb 0.00 in0.0 mm 0.00 in0.0 mm 0.00 in0.0 mm
01:50 AM 48.9°F9.4°C 28.0°F-2.2°C 44% Calm Calm 4.0 mph6.4 kmh 30.05 in1017.6 mb 0.00 in0.0 mm 0.00 in0.0 mm 0.00 in0.0 mm
02:00 AM 48.8°F9.3°C 27.3°F-2.6°C 43% Calm Calm 3.0 mph4.8 kmh 30.05 in1017.6 mb 0.01 in0.3 mm 0.01 in0.3 mm 0.01 in0.3 mm
02:10 AM 48.8°F9.3°C 26.7°F-2.9°C 42% Calm Calm 2.0 mph3.2 kmh 30.06 in1017.9 mb 0.01 in0.3 mm 0.00 in0.0 mm 0.01 in0.3 mm
02:20 AM 48.8°F9.3°C 26.2°F-3.2°C 41% Calm Calm 2.0 mph3.2 kmh 30.07 in1018.3 mb 0.02 in0.5 mm 0.06 in1.5 mm 0.02 in0.5 mm
02:30 AM 48.8°F9.3°C 25.6°F-3.6°C 40% Calm Calm 1.0 mph1.6 kmh 30.07 in1018.3 mb 0.02 in0.5 mm 0.00 in0.0 mm 0.02 in0.5 mm
02:40 AM 48.7°F9.3°C 24.9°F-3.9°C 39% Calm Calm 1.0 mph1.6 kmh 30.06 in1017.9 mb 0.03 in0.8 mm 0.06 in1.5 mm 0.03 in0.8 mm
02:50 AM 48.7°F9.3°C 24.9°F-3.9°C 39% Calm Calm 1.0 mph1.6 kmh 30.06 in1017.9 mb 0.05 in1.3 mm 0.12 in3.0 mm 0.05 in1.3 mm
03:00 AM 48.6°F9.2°C 23.5°F-4.7°C 37% 1.0 mph NNW1.6 kmh NNW 2.0 mph3.2 kmh 30.05 in1017.6 mb 0.07 in1.8 mm 0.02 in0.5 mm 0.07 in1.8 mm
03:10 AM 48.5°F9.2°C 23.4°F-4.8°C 37% 1.0 mph N1.6 kmh N 2.0 mph3.2 kmh 30.05 in1017.6 mb 0.09 in2.3 mm 0.12 in3.0 mm 0.09 in2.3 mm
03:20 AM 48.3°F9.1°C 22.6°F-5.2°C 36% Calm Calm 2.0 mph3.2 kmh 30.05 in1017.6 mb 0.11 in2.8 mm 0.12 in3.0 mm 0.11 in2.8 mm
03:30 AM 48.2°F9.0°C 21.2°F-6.0°C 34% Calm Calm 4.0 mph6.4 kmh 30.04 in1017.3 mb 0.12 in3.0 mm 0.06 in1.5 mm 0.12 in3.0 mm
03:40 AM 48.1°F8.9°C 20.4°F-6.4°C 33% 1.0 mph N1.6 kmh N 2.0 mph3.2 kmh 30.04 in1017.3 mb 0.13 in3.3 mm 0.06 in1.5 mm 0.13 in3.3 mm
03:50 AM 48.1°F8.9°C 19.7°F-6.8°C 32% Calm Calm 3.0 mph4.8 kmh 30.03 in1016.9 mb 0.15 in3.8 mm 0.12 in3.0 mm 0.15 in3.8 mm
04:00 AM 48.0°F8.9°C 18.8°F-7.3°C 31% 2.0 mph NNE3.2 kmh NNE 4.0 mph6.4 kmh 30.02 in1016.6 mb 0.13 in3.3 mm 0.00 in0.0 mm 0.15 in3.8 mm
04:10 AM 48.0°F8.9°C 17.3°F-8.2°C 29% 1.0 mph NE1.6 kmh NE 5.0 mph8.0 kmh 30.02 in1016.6 mb 0.12 in3.0 mm 0.00 in0.0 mm 0.15 in3.8 mm
04:20 AM 48.0°F8.9°C 16.5°F-8.6°C 28% 3.0 mph ENE4.8 kmh ENE 7.0 mph11.3 kmh 30.01 in1016.3 mb 0.11 in2.8 mm 0.00 in0.0 mm 0.15 in3.8 mm
04:30 AM 47.9°F8.8°C 15.6°F-9.1°C 27% 1.0 mph NE1.6 kmh NE 10.0 mph16.1 kmh 30.00 in1015.9 mb 0.13 in3.3 mm 0.12 in3.0 mm 0.17 in4.3 mm
04:40 AM 47.6°F8.7°C 14.4°F-9.8°C 26% 3.0 mph N4.8 kmh N 8.0 mph12.9 kmh 29.99 in1015.6 mb 0.12 in3.0 mm 0.00 in0.0 mm 0.17 in4.3 mm
04:50 AM 47.4°F8.6°C 14.3°F-9.8°C 26% 3.0 mph E4.8 kmh E 10.0 mph16.1 kmh 29.98 in1015.2 mb 0.11 in2.8 mm 0.00 in0.0 mm 0.17 in4.3 mm
05:00 AM 47.2°F8.4°C 13.2°F-10.4°C 25% 2.0 mph NE3.2 kmh NE 8.0 mph12.9 kmh 29.98 in1015.2 mb 0.09 in2.3 mm 0.00 in0.0 mm 0.17 in4.3 mm
05:10 AM 47.1°F8.4°C 12.2°F-11.0°C 24% 1.0 mph E1.6 kmh E 7.0 mph11.3 kmh 29.97 in1014.9 mb 0.08 in2.0 mm 0.00 in0.0 mm 0.17 in4.3 mm
05:20 AM 46.9°F8.3°C 12.0°F-11.1°C 24% 2.0 mph ENE3.2 kmh ENE 9.0 mph14.5 kmh 29.97 in1014.9 mb 0.07 in1.8 mm 0.00 in0.0 mm 0.17 in4.3 mm
05:30 AM 46.8°F8.2°C 11.0°F-11.7°C 23% 2.0 mph E3.2 kmh E 6.0 mph9.7 kmh 29.96 in1014.6 mb 0.04 in1.0 mm 0.00 in0.0 mm 0.17 in4.3 mm
05:43 AM 46.7°F8.2°C 9.9°F-12.3°C 22% 2.0 mph ENE3.2 kmh ENE 7.0 mph11.3 kmh 29.97 in1014.9 mb 0.04 in1.0 mm 0.00 in0.0 mm 0.17 in4.3 mm
05:53 AM 46.5°F8.1°C 9.7°F-12.4°C 22% 6.0 mph NE9.7 kmh NE 7.0 mph11.3 kmh 29.97 in1014.9 mb 0.03 in0.8 mm 0.00 in0.0 mm 0.17 in4.3 mm
06:03 AM 46.4°F8.0°C 8.6°F-13.0°C 21% 2.0 mph E3.2 kmh E 6.0 mph9.7 kmh 29.98 in1015.2 mb 0.04 in1.0 mm 0.01 in0.3 mm 0.18 in4.6 mm
06:13 AM 46.3°F7.9°C 8.5°F-13.1°C 21% 4.0 mph ENE6.4 kmh ENE 6.0 mph9.7 kmh 29.98 in1015.2 mb 0.04 in1.0 mm 0.00 in0.0 mm 0.18 in4.6 mm
06:23 AM 46.2°F7.9°C 7.4°F-13.7°C 20% 3.0 mph NE4.8 kmh NE 6.0 mph9.7 kmh 29.98 in1015.2 mb 0.05 in1.3 mm 0.06 in1.5 mm 0.19 in4.8 mm
06:32 AM 46.1°F7.8°C 7.3°F-13.7°C 20% 1.0 mph NE1.6 kmh NE 5.0 mph8.0 kmh 29.98 in1015.2 mb 0.05 in1.3 mm 0.00 in0.0 mm 0.19 in4.8 mm
06:41 AM 46.1°F7.8°C 6.2°F-14.3°C 19% 3.0 mph NNE4.8 kmh NNE 5.0 mph8.0 kmh 29.98 in1015.2 mb 0.05 in1.3 mm 0.00 in0.0 mm 0.19 in4.8 mm
06:50 AM 46.0°F7.8°C 6.1°F-14.4°C 19% 3.0 mph NE4.8 kmh NE 4.0 mph6.4 kmh 29.98 in1015.2 mb 0.05 in1.3 mm 0.00 in0.0 mm 0.19 in4.8 mm
07:01 AM 46.0°F7.8°C 4.9°F-15.1°C 18% 3.0 mph ENE4.8 kmh ENE 3.0 mph4.8 kmh 29.98 in1015.2 mb 0.05 in1.3 mm 0.00 in0.0 mm 0.19 in4.8 mm
07:13 AM 45.9°F7.7°C 4.8°F-15.1°C 18% 3.0 mph NE4.8 kmh NE 6.0 mph9.7 kmh 29.98 in1015.2 mb 0.05 in1.3 mm 0.00 in0.0 mm 0.19 in4.8 mm
07:23 AM 45.9°F7.7°C 4.8°F-15.1°C 18% 4.0 mph NE6.4 kmh NE 6.0 mph9.7 kmh 29.99 in1015.6 mb 0.05 in1.3 mm 0.00 in0.0 mm 0.19 in4.8 mm
07:34 AM 45.9°F7.7°C 3.6°F-15.8°C 17% 2.0 mph NE3.2 kmh NE 6.0 mph9.7 kmh 29.99 in1015.6 mb 0.04 in1.0 mm 0.00 in0.0 mm 0.19 in4.8 mm
07:41 AM 45.9°F7.7°C 3.6°F-15.8°C 17% 2.0 mph NE3.2 kmh NE 6.0 mph9.7 kmh 29.99 in1015.6 mb 0.05 in1.3 mm 0.09 in2.3 mm 0.20 in5.1 mm
07:53 AM 45.9°F7.7°C 2.3°F-16.5°C 16% 6.0 mph N9.7 kmh N 7.0 mph11.3 kmh 29.98 in1015.2 mb 0.05 in1.3 mm 0.00 in0.0 mm 0.20 in5.1 mm
08:03 AM 45.8°F7.7°C 2.2°F-16.6°C 16% 2.0 mph NNE3.2 kmh NNE 7.0 mph11.3 kmh 29.99 in1015.6 mb 0.05 in1.3 mm 0.00 in0.0 mm 0.20 in5.1 mm
08:13 AM 45.8°F7.7°C 2.2°F-16.6°C 16% Calm Calm 7.0 mph11.3 kmh 30.00 in1015.9 mb 0.05 in1.3 mm 0.00 in0.0 mm 0.20 in5.1 mm
08:21 AM 45.8°F7.7°C 2.2°F-16.6°C 16% 2.0 mph NNE3.2 kmh NNE 9.0 mph14.5 kmh 30.00 in1015.9 mb 0.06 in1.5 mm 0.08 in2.0 mm 0.21 in5.3 mm
08:33 AM 45.8°F7.7°C 0.8°F-17.3°C 15% 6.0 mph NNE9.7 kmh NNE 7.0 mph11.3 kmh 30.00 in1015.9 mb 0.06 in1.5 mm 0.00 in0.0 mm 0.21 in5.3 mm
08:40 AM 45.8°F7.7°C 0.8°F-17.3°C 15% 3.0 mph NNE4.8 kmh NNE 8.0 mph12.9 kmh 30.01 in1016.3 mb 0.06 in1.5 mm 0.00 in0.0 mm 0.21 in5.3 mm
09:53 AM 45.0°F7.2°C -1.3°F-18.5°C 14% 5.0 mph E8.0 kmh E 12.0 mph19.3 kmh 30.02 in1016.6 mb 0.05 in1.3 mm 0.23 in5.8 mm 0.26 in6.6 mm
10:03 AM 45.0°F7.2°C -2.9°F-19.4°C 13% 4.0 mph NE6.4 kmh NE 11.0 mph17.7 kmh 30.02 in1016.6 mb 0.05 in1.3 mm 0.00 in0.0 mm 0.26 in6.6 mm
10:11 AM 44.9°F7.2°C -3.0°F-19.4°C 13% 5.0 mph NE8.0 kmh NE 10.0 mph16.1 kmh 30.03 in1016.9 mb 0.04 in1.0 mm 0.00 in0.0 mm 0.26 in6.6 mm
10:21 AM 44.9°F7.2°C -3.0°F-19.4°C 13% 3.0 mph N4.8 kmh N 11.0 mph17.7 kmh 30.03 in1016.9 mb 0.03 in0.8 mm 0.00 in0.0 mm 0.26 in6.6 mm
10:33 AM 44.9°F7.2°C -3.0°F-19.4°C 13% 6.0 mph ENE9.7 kmh ENE 10.0 mph16.1 kmh 30.04 in1017.3 mb 0.03 in0.8 mm 0.00 in0.0 mm 0.26 in6.6 mm
10:43 AM 44.9°F7.2°C -3.0°F-19.4°C 13% 6.0 mph NNW9.7 kmh NNW 10.0 mph16.1 kmh 30.04 in1017.3 mb 0.03 in0.8 mm 0.00 in0.0 mm 0.26 in6.6 mm
10:53 AM 44.9°F7.2°C -4.6°F-20.3°C 12% 4.0 mph NNE6.4 kmh NNE 11.0 mph17.7 kmh 30.04 in1017.3 mb 0.03 in0.8 mm 0.00 in0.0 mm 0.26 in6.6 mm
11:30 AM 42.2°F5.7°C 0.5°F-17.5°C 17% 7.0 mph N11.3 kmh N 10.0 mph16.1 kmh 30.05 in1017.6 mb 0.01 in0.3 mm 0.00 in0.0 mm 0.26 in6.6 mm
11:40 AM 41.7°F5.4°C 0.1°F-17.7°C 17% 8.0 mph NNE12.9 kmh NNE 11.0 mph17.7 kmh 30.06 in1017.9 mb 0.01 in0.3 mm 0.00 in0.0 mm 0.26 in6.6 mm
11:50 AM 41.4°F5.2°C 1.1°F-17.2°C 18% 3.0 mph NW4.8 kmh NW 11.0 mph17.7 kmh 30.06 in1017.9 mb 0.02 in0.5 mm 0.06 in1.5 mm 0.27 in6.9 mm
12:00 PM 41.4°F5.2°C -0.1°F-17.8°C 17% 5.0 mph N8.0 kmh N 13.0 mph20.9 kmh 30.06 in1017.9 mb 0.01 in0.3 mm 0.00 in0.0 mm 0.27 in6.9 mm
12:10 PM 41.2°F5.1°C 0.9°F-17.3°C 18% 3.0 mph NNE4.8 kmh NNE 13.0 mph20.9 kmh 30.07 in1018.3 mb 0.01 in0.3 mm 0.00 in0.0 mm 0.27 in6.9 mm
12:20 PM 41.7°F5.4°C 0.1°F-17.7°C 17% 3.0 mph NNW4.8 kmh NNW 10.0 mph16.1 kmh 30.07 in1018.3 mb 0.01 in0.3 mm 0.00 in0.0 mm 0.27 in6.9 mm
12:30 PM 41.4°F5.2°C -0.1°F-17.8°C 17% 4.0 mph E6.4 kmh E 13.0 mph20.9 kmh 30.07 in1018.3 mb 0.01 in0.3 mm 0.00 in0.0 mm 0.27 in6.9 mm
12:40 PM 41.2°F5.1°C 0.9°F-17.3°C 18% 4.0 mph N6.4 kmh N 14.0 mph22.5 kmh 30.07 in1018.3 mb 0.01 in0.3 mm 0.00 in0.0 mm 0.27 in6.9 mm
12:50 PM 40.8°F4.9°C 1.8°F-16.8°C 19% 3.0 mph NNW4.8 kmh NNW 11.0 mph17.7 kmh 30.07 in1018.3 mb 0.00 in0.0 mm 0.00 in0.0 mm 0.27 in6.9 mm
01:00 PM 40.7°F4.8°C 1.7°F-16.8°C 19% 3.0 mph NNE4.8 kmh NNE 15.0 mph24.1 kmh 30.07 in1018.3 mb 0.00 in0.0 mm 0.00 in0.0 mm 0.27 in6.9 mm
02:10 PM 40.4°F4.7°C 3.6°F-15.8°C 21% 3.0 mph NNE4.8 kmh NNE 10.0 mph16.1 kmh 30.08 in1018.6 mb 0.06 in1.5 mm 0.36 in9.1 mm 0.33 in8.4 mm
02:20 PM 40.2°F4.6°C 4.4°F-15.3°C 22% 3.0 mph NNW4.8 kmh NNW 13.0 mph20.9 kmh 30.09 in1019.0 mb 0.05 in1.3 mm 0.00 in0.0 mm 0.33 in8.4 mm
02:31 PM 40.3°F4.6°C 4.5°F-15.3°C 22% 5.0 mph NW8.0 kmh NW 13.0 mph20.9 kmh 30.09 in1019.0 mb 0.06 in1.5 mm 0.05 in1.3 mm 0.34 in8.6 mm
02:40 PM 40.3°F4.6°C 4.5°F-15.3°C 22% 5.0 mph NE8.0 kmh NE 14.0 mph22.5 kmh 30.09 in1019.0 mb 0.06 in1.5 mm 0.00 in0.0 mm 0.34 in8.6 mm
02:50 PM 40.4°F4.7°C 4.6°F-15.2°C 22% 3.0 mph NNE4.8 kmh NNE 12.0 mph19.3 kmh 30.09 in1019.0 mb 0.05 in1.3 mm 0.00 in0.0 mm 0.34 in8.6 mm
03:00 PM 40.3°F4.6°C 5.5°F-14.7°C 23% 3.0 mph N4.8 kmh N 13.0 mph20.9 kmh 30.10 in1019.3 mb 0.03 in0.8 mm 0.00 in0.0 mm 0.34 in8.6 mm
03:10 PM 40.7°F4.8°C 4.8°F-15.1°C 22% 4.0 mph NNE6.4 kmh NNE 11.0 mph17.7 kmh 30.10 in1019.3 mb 0.02 in0.5 mm 0.00 in0.0 mm 0.34 in8.6 mm
04:51 PM 43.7°F6.5°C 22.1°F-5.5°C 42% 1.0 mph NE1.6 kmh NE 10.0 mph16.1 kmh 30.10 in1019.3 mb 0.00 in0.0 mm 0.00 in0.0 mm 0.34 in8.6 mm
05:03 PM 44.4°F6.9°C 25.5°F-3.6°C 47% 1.0 mph W1.6 kmh W 12.0 mph19.3 kmh 30.11 in1019.6 mb 0.00 in0.0 mm 0.00 in0.0 mm 0.34 in8.6 mm
05:12 PM 45.0°F7.2°C 28.0°F-2.2°C 51% 3.0 mph NNE4.8 kmh NNE 9.0 mph14.5 kmh 30.11 in1019.6 mb 0.00 in0.0 mm 0.00 in0.0 mm 0.34 in8.6 mm
05:20 PM 45.4°F7.4°C 30.2°F-1.0°C 55% 2.0 mph NNE3.2 kmh NNE 9.0 mph14.5 kmh 30.11 in1019.6 mb 0.00 in0.0 mm 0.00 in0.0 mm 0.34 in8.6 mm
05:31 PM 46.1°F7.8°C 32.6°F0.3°C 59% 3.0 mph N4.8 kmh N 7.0 mph11.3 kmh 30.11 in1019.6 mb 0.00 in0.0 mm 0.00 in0.0 mm 0.34 in8.6 mm
05:40 PM 47.5°F8.6°C 35.6°F2.0°C 63% 5.0 mph N8.0 kmh N 7.0 mph11.3 kmh 30.11 in1019.6 mb 0.00 in0.0 mm 0.00 in0.0 mm 0.34 in8.6 mm
06:03 PM 47.6°F8.7°C 39.0°F3.9°C 72% 5.0 mph N8.0 kmh N 7.0 mph11.3 kmh 30.11 in1019.6 mb 0.00 in0.0 mm 0.00 in0.0 mm 0.34 in8.6 mm
06:13 PM 47.3°F8.5°C 38.7°F3.7°C 72% 5.0 mph N8.0 kmh N 10.0 mph16.1 kmh 30.11 in1019.6 mb 0.00 in0.0 mm 0.00 in0.0 mm 0.34 in8.6 mm
06:22 PM 47.4°F8.6°C 38.8°F3.8°C 72% 7.0 mph NNW11.3 kmh NNW 13.0 mph20.9 kmh 30.12 in1020.0 mb 0.00 in0.0 mm 0.00 in0.0 mm 0.34 in8.6 mm
06:31 PM 47.1°F8.4°C 38.2°F3.4°C 71% 2.0 mph NNW3.2 kmh NNW 10.0 mph16.1 kmh 30.12 in1020.0 mb 0.00 in0.0 mm 0.00 in0.0 mm 0.34 in8.6 mm
06:41 PM 47.0°F8.3°C 38.1°F3.4°C 71% 5.0 mph NW8.0 kmh NW 10.0 mph16.1 kmh 30.13 in1020.3 mb 0.00 in0.0 mm 0.00 in0.0 mm 0.34 in8.6 mm
07:43 PM 44.1°F6.7°C 32.3°F0.2°C 63% 2.0 mph NW3.2 kmh NW 12.0 mph19.3 kmh 30.16 in1021.3 mb 0.00 in0.0 mm 0.00 in0.0 mm 0.34 in8.6 mm
07:53 PM 43.4°F6.3°C 31.7°F-0.2°C 63% 6.0 mph N9.7 kmh N 12.0 mph19.3 kmh 30.17 in1021.7 mb 0.00 in0.0 mm 0.00 in0.0 mm 0.34 in8.6 mm
08:01 PM 42.9°F6.1°C 31.2°F-0.4°C 63% 2.0 mph NNW3.2 kmh NNW 12.0 mph19.3 kmh 30.17 in1021.7 mb 0.00 in0.0 mm 0.00 in0.0 mm 0.34 in8.6 mm
08:13 PM 42.3°F5.7°C 30.2°F-1.0°C 62% 3.0 mph N4.8 kmh N 10.0 mph16.1 kmh 30.18 in1022.0 mb 0.00 in0.0 mm 0.00 in0.0 mm 0.34 in8.6 mm
08:20 PM 41.9°F5.5°C 29.9°F-1.2°C 62% 4.0 mph WNW6.4 kmh WNW 9.0 mph14.5 kmh 30.18 in1022.0 mb 0.00 in0.0 mm 0.00 in0.0 mm 0.34 in8.6 mm
08:30 PM 41.4°F5.2°C 29.0°F-1.7°C 61% 2.0 mph NNW3.2 kmh NNW 10.0 mph16.1 kmh 30.19 in1022.4 mb 0.00 in0.0 mm 0.00 in0.0 mm 0.34 in8.6 mm
08:40 PM 40.8°F4.9°C 28.0°F-2.2°C 60% 2.0 mph N3.2 kmh N 7.0 mph11.3 kmh 30.19 in1022.4 mb 0.00 in0.0 mm 0.00 in0.0 mm 0.34 in8.6 mm
08:50 PM 40.4°F4.7°C 27.2°F-2.7°C 59% 5.0 mph NW8.0 kmh NW 9.0 mph14.5 kmh 30.20 in1022.7 mb 0.00 in0.0 mm 0.00 in0.0 mm 0.34 in8.6 mm
09:00 PM 39.8°F4.3°C 26.2°F-3.2°C 58% 2.0 mph N3.2 kmh N 10.0 mph16.1 kmh 30.20 in1022.7 mb 0.00 in0.0 mm 0.00 in0.0 mm 0.34 in8.6 mm
09:40 PM 38.1°F3.4°C 23.8°F-4.6°C 56% 4.0 mph N6.4 kmh N 6.0 mph9.7 kmh 30.22 in1023.4 mb 0.00 in0.0 mm 0.00 in0.0 mm 0.34 in8.6 mm
09:52 PM 37.7°F3.2°C 23.4°F-4.8°C 56% 2.0 mph N3.2 kmh N 6.0 mph9.7 kmh 30.23 in1023.7 mb 0.00 in0.0 mm 0.00 in0.0 mm 0.34 in8.6 mm
10:00 PM 37.5°F3.1°C 23.7°F-4.6°C 57% 5.0 mph NNE8.0 kmh NNE 6.0 mph9.7 kmh 30.24 in1024.0 mb 0.00 in0.0 mm 0.00 in0.0 mm 0.34 in8.6 mm
10:12 PM 37.3°F2.9°C 23.1°F-4.9°C 56% 1.0 mph NNE1.6 kmh NNE 7.0 mph11.3 kmh 30.24 in1024.0 mb 0.00 in0.0 mm 0.00 in0.0 mm 0.34 in8.6 mm
11:23 PM 34.8°F1.6°C 23.1°F-4.9°C 62% 1.0 mph NE1.6 kmh NE 4.0 mph6.4 kmh 30.25 in1024.4 mb 0.00 in0.0 mm 0.00 in0.0 mm 0.34 in8.6 mm
11:32 PM 34.4°F1.3°C 22.7°F-5.2°C 62% 1.0 mph NE1.6 kmh NE 2.0 mph3.2 kmh 30.26 in1024.7 mb 0.00 in0.0 mm 0.00 in0.0 mm 0.34 in8.6 mm
11:43 PM 34.3°F1.3°C 22.7°F-5.2°C 62% 1.0 mph NNE1.6 kmh NNE 4.0 mph6.4 kmh 30.26 in1024.7 mb 0.00 in0.0 mm 0.00 in0.0 mm 0.34 in8.6 mm
11:53 PM 34.4°F1.3°C 22.4°F-5.3°C 61% 1.0 mph NE1.6 kmh NE 4.0 mph6.4 kmh 30.26 in1024.7 mb 0.00 in0.0 mm 0.00 in0.0 mm 0.34 in8.6 mm